sensor_id;sensor_type;location;lat;lon;timestamp;P1;durP1;ratioP1;P2;durP2;ratioP2
54831;SDS011;40730;53.068;6.572;2023-04-23T00:01:55;189.55;;;47.50;;
54831;SDS011;40730;53.068;6.572;2023-04-23T00:04:24;267.58;;;45.83;;
54831;SDS011;40730;53.068;6.572;2023-04-23T00:06:51;117.25;;;39.38;;
54831;SDS011;40730;53.068;6.572;2023-04-23T00:09:16;176.85;;;45.55;;
54831;SDS011;40730;53.068;6.572;2023-04-23T00:11:43;418.23;;;57.00;;
54831;SDS011;40730;53.068;6.572;2023-04-23T00:14:09;217.93;;;43.15;;
54831;SDS011;40730;53.068;6.572;2023-04-23T00:16:35;129.15;;;45.67;;
54831;SDS011;40730;53.068;6.572;2023-04-23T00:19:01;104.35;;;41.60;;
54831;SDS011;40730;53.068;6.572;2023-04-23T00:21:27;98.20;;;40.65;;
54831;SDS011;40730;53.068;6.572;2023-04-23T00:23:53;107.22;;;42.78;;
54831;SDS011;40730;53.068;6.572;2023-04-23T00:26:18;119.45;;;45.65;;
54831;SDS011;40730;53.068;6.572;2023-04-23T00:28:44;113.22;;;42.80;;
54831;SDS011;40730;53.068;6.572;2023-04-23T00:31:10;110.35;;;44.58;;
54831;SDS011;40730;53.068;6.572;2023-04-23T00:33:36;109.68;;;44.30;;
54831;SDS011;40730;53.068;6.572;2023-04-23T00:36:02;113.65;;;42.03;;
54831;SDS011;40730;53.068;6.572;2023-04-23T00:38:28;104.60;;;42.72;;
54831;SDS011;40730;53.068;6.572;2023-04-23T00:40:53;112.15;;;42.13;;
54831;SDS011;40730;53.068;6.572;2023-04-23T00:43:19;118.07;;;43.53;;
54831;SDS011;40730;53.068;6.572;2023-04-23T00:45:46;105.78;;;42.20;;
54831;SDS011;40730;53.068;6.572;2023-04-23T00:48:12;104.82;;;40.13;;
54831;SDS011;40730;53.068;6.572;2023-04-23T00:50:38;125.57;;;44.85;;
54831;SDS011;40730;53.068;6.572;2023-04-23T00:53:03;107.05;;;41.22;;
54831;SDS011;40730;53.068;6.572;2023-04-23T00:55:29;110.75;;;42.33;;
54831;SDS011;40730;53.068;6.572;2023-04-23T00:57:55;116.28;;;43.70;;
54831;SDS011;40730;53.068;6.572;2023-04-23T01:00:21;102.32;;;39.65;;
54831;SDS011;40730;53.068;6.572;2023-04-23T01:02:47;106.45;;;40.42;;
54831;SDS011;40730;53.068;6.572;2023-04-23T01:05:14;121.07;;;42.22;;
54831;SDS011;40730;53.068;6.572;2023-04-23T01:07:41;103.03;;;39.85;;
54831;SDS011;40730;53.068;6.572;2023-04-23T01:10:08;108.18;;;40.05;;
54831;SDS011;40730;53.068;6.572;2023-04-23T01:12:35;111.00;;;41.55;;
54831;SDS011;40730;53.068;6.572;2023-04-23T01:15:01;100.65;;;41.47;;
54831;SDS011;40730;53.068;6.572;2023-04-23T01:17:27;99.50;;;38.53;;
54831;SDS011;40730;53.068;6.572;2023-04-23T01:19:53;101.93;;;40.22;;
54831;SDS011;40730;53.068;6.572;2023-04-23T01:22:18;110.00;;;41.38;;
54831;SDS011;40730;53.068;6.572;2023-04-23T01:24:45;102.50;;;38.63;;
54831;SDS011;40730;53.068;6.572;2023-04-23T01:27:11;97.63;;;38.85;;
54831;SDS011;40730;53.068;6.572;2023-04-23T01:29:37;102.80;;;39.20;;
54831;SDS011;40730;53.068;6.572;2023-04-23T01:32:04;96.88;;;39.55;;
54831;SDS011;40730;53.068;6.572;2023-04-23T01:34:31;114.68;;;42.65;;
54831;SDS011;40730;53.068;6.572;2023-04-23T01:36:57;102.88;;;41.40;;
54831;SDS011;40730;53.068;6.572;2023-04-23T01:39:23;104.85;;;42.20;;
54831;SDS011;40730;53.068;6.572;2023-04-23T01:41:49;97.38;;;40.15;;
54831;SDS011;40730;53.068;6.572;2023-04-23T01:44:15;99.45;;;40.47;;
54831;SDS011;40730;53.068;6.572;2023-04-23T01:46:41;107.32;;;42.63;;
54831;SDS011;40730;53.068;6.572;2023-04-23T01:49:07;108.15;;;44.08;;
54831;SDS011;40730;53.068;6.572;2023-04-23T01:51:34;112.88;;;45.58;;
54831;SDS011;40730;53.068;6.572;2023-04-23T01:54:00;116.82;;;48.13;;
54831;SDS011;40730;53.068;6.572;2023-04-23T01:56:26;118.93;;;48.13;;
54831;SDS011;40730;53.068;6.572;2023-04-23T01:58:52;126.57;;;47.90;;
54831;SDS011;40730;53.068;6.572;2023-04-23T02:01:18;125.85;;;49.55;;
54831;SDS011;40730;53.068;6.572;2023-04-23T02:03:44;150.88;;;52.20;;
54831;SDS011;40730;53.068;6.572;2023-04-23T02:06:11;123.97;;;49.88;;
54831;SDS011;40730;53.068;6.572;2023-04-23T02:08:37;134.15;;;49.92;;
54831;SDS011;40730;53.068;6.572;2023-04-23T02:11:04;145.40;;;52.75;;
54831;SDS011;40730;53.068;6.572;2023-04-23T02:13:30;150.13;;;54.13;;
54831;SDS011;40730;53.068;6.572;2023-04-23T02:15:56;143.45;;;55.33;;
54831;SDS011;40730;53.068;6.572;2023-04-23T02:18:22;166.70;;;57.28;;
54831;SDS011;40730;53.068;6.572;2023-04-23T02:20:48;153.48;;;52.97;;
54831;SDS011;40730;53.068;6.572;2023-04-23T02:23:13;149.32;;;54.55;;
54831;SDS011;40730;53.068;6.572;2023-04-23T02:25:39;151.13;;;57.92;;
54831;SDS011;40730;53.068;6.572;2023-04-23T02:28:05;153.82;;;56.10;;
54831;SDS011;40730;53.068;6.572;2023-04-23T02:30:34;176.60;;;58.25;;
54831;SDS011;40730;53.068;6.572;2023-04-23T02:33:00;139.30;;;50.75;;
54831;SDS011;40730;53.068;6.572;2023-04-23T02:35:26;159.93;;;57.33;;
54831;SDS011;40730;53.068;6.572;2023-04-23T02:37:52;165.32;;;55.20;;
54831;SDS011;40730;53.068;6.572;2023-04-23T02:40:18;181.23;;;58.35;;
54831;SDS011;40730;53.068;6.572;2023-04-23T02:42:44;160.73;;;54.83;;
54831;SDS011;40730;53.068;6.572;2023-04-23T02:45:10;164.85;;;55.20;;
54831;SDS011;40730;53.068;6.572;2023-04-23T02:47:36;153.48;;;52.38;;
54831;SDS011;40730;53.068;6.572;2023-04-23T02:50:02;163.60;;;55.83;;
54831;SDS011;40730;53.068;6.572;2023-04-23T02:52:30;157.25;;;55.70;;
54831;SDS011;40730;53.068;6.572;2023-04-23T02:54:56;174.00;;;58.53;;
54831;SDS011;40730;53.068;6.572;2023-04-23T02:57:22;172.73;;;58.80;;
54831;SDS011;40730;53.068;6.572;2023-04-23T02:59:47;175.77;;;57.45;;
54831;SDS011;40730;53.068;6.572;2023-04-23T03:02:14;190.15;;;59.80;;
54831;SDS011;40730;53.068;6.572;2023-04-23T03:04:40;195.23;;;62.50;;
54831;SDS011;40730;53.068;6.572;2023-04-23T03:07:05;197.13;;;62.88;;
54831;SDS011;40730;53.068;6.572;2023-04-23T03:09:31;192.68;;;61.95;;
54831;SDS011;40730;53.068;6.572;2023-04-23T03:11:56;191.25;;;61.45;;
54831;SDS011;40730;53.068;6.572;2023-04-23T03:14:22;173.55;;;58.85;;
54831;SDS011;40730;53.068;6.572;2023-04-23T03:16:48;216.30;;;65.28;;
54831;SDS011;40730;53.068;6.572;2023-04-23T03:19:14;186.77;;;60.67;;
54831;SDS011;40730;53.068;6.572;2023-04-23T03:21:39;164.98;;;57.28;;
54831;SDS011;40730;53.068;6.572;2023-04-23T03:24:05;181.63;;;58.03;;
54831;SDS011;40730;53.068;6.572;2023-04-23T03:26:31;169.63;;;57.13;;
54831;SDS011;40730;53.068;6.572;2023-04-23T03:28:58;210.52;;;61.20;;
54831;SDS011;40730;53.068;6.572;2023-04-23T03:31:24;176.90;;;57.35;;
54831;SDS011;40730;53.068;6.572;2023-04-23T03:33:50;198.05;;;58.92;;
54831;SDS011;40730;53.068;6.572;2023-04-23T03:36:15;195.63;;;58.85;;
54831;SDS011;40730;53.068;6.572;2023-04-23T03:38:41;237.95;;;62.42;;
54831;SDS011;40730;53.068;6.572;2023-04-23T03:41:06;365.08;;;69.65;;
54831;SDS011;40730;53.068;6.572;2023-04-23T03:43:32;453.33;;;75.50;;
54831;SDS011;40730;53.068;6.572;2023-04-23T03:45:58;471.50;;;73.65;;
54831;SDS011;40730;53.068;6.572;2023-04-23T03:48:23;365.58;;;71.15;;
54831;SDS011;40730;53.068;6.572;2023-04-23T03:50:49;448.30;;;75.47;;
54831;SDS011;40730;53.068;6.572;2023-04-23T03:53:14;529.53;;;74.70;;
54831;SDS011;40730;53.068;6.572;2023-04-23T03:55:41;722.20;;;82.78;;
54831;SDS011;40730;53.068;6.572;2023-04-23T03:58:07;748.65;;;96.75;;
54831;SDS011;40730;53.068;6.572;2023-04-23T04:00:33;811.67;;;102.20;;
54831;SDS011;40730;53.068;6.572;2023-04-23T04:02:59;534.83;;;80.70;;
54831;SDS011;40730;53.068;6.572;2023-04-23T04:05:26;234.93;;;69.50;;
54831;SDS011;40730;53.068;6.572;2023-04-23T04:07:52;340.20;;;75.95;;
54831;SDS011;40730;53.068;6.572;2023-04-23T04:10:18;352.70;;;81.60;;
54831;SDS011;40730;53.068;6.572;2023-04-23T04:12:44;302.35;;;77.43;;
54831;SDS011;40730;53.068;6.572;2023-04-23T04:15:11;241.43;;;69.70;;
54831;SDS011;40730;53.068;6.572;2023-04-23T04:17:41;318.30;;;78.13;;
54831;SDS011;40730;53.068;6.572;2023-04-23T04:20:09;319.83;;;76.65;;
54831;SDS011;40730;53.068;6.572;2023-04-23T04:22:35;304.13;;;71.65;;
54831;SDS011;40730;53.068;6.572;2023-04-23T04:25:01;284.70;;;71.35;;
54831;SDS011;40730;53.068;6.572;2023-04-23T04:27:27;311.60;;;76.95;;
54831;SDS011;40730;53.068;6.572;2023-04-23T04:29:52;404.58;;;81.10;;
54831;SDS011;40730;53.068;6.572;2023-04-23T04:32:18;417.83;;;82.57;;
54831;SDS011;40730;53.068;6.572;2023-04-23T04:34:44;456.65;;;82.80;;
54831;SDS011;40730;53.068;6.572;2023-04-23T04:37:09;438.75;;;81.53;;
54831;SDS011;40730;53.068;6.572;2023-04-23T04:39:35;369.02;;;79.55;;
54831;SDS011;40730;53.068;6.572;2023-04-23T04:42:01;366.65;;;78.50;;
54831;SDS011;40730;53.068;6.572;2023-04-23T04:44:28;457.10;;;81.72;;
54831;SDS011;40730;53.068;6.572;2023-04-23T04:46:54;444.63;;;82.40;;
54831;SDS011;40730;53.068;6.572;2023-04-23T04:49:20;579.35;;;94.75;;
54831;SDS011;40730;53.068;6.572;2023-04-23T04:51:46;540.42;;;88.43;;
54831;SDS011;40730;53.068;6.572;2023-04-23T04:54:12;461.98;;;86.82;;
54831;SDS011;40730;53.068;6.572;2023-04-23T04:56:38;600.42;;;95.10;;
54831;SDS011;40730;53.068;6.572;2023-04-23T04:59:03;626.47;;;97.75;;
54831;SDS011;40730;53.068;6.572;2023-04-23T05:01:29;551.50;;;92.43;;
54831;SDS011;40730;53.068;6.572;2023-04-23T05:03:55;513.10;;;93.95;;
54831;SDS011;40730;53.068;6.572;2023-04-23T05:06:21;569.22;;;97.97;;
54831;SDS011;40730;53.068;6.572;2023-04-23T05:08:46;597.42;;;98.47;;
54831;SDS011;40730;53.068;6.572;2023-04-23T05:11:16;502.25;;;94.50;;
54831;SDS011;40730;53.068;6.572;2023-04-23T05:13:42;517.33;;;92.07;;
54831;SDS011;40730;53.068;6.572;2023-04-23T05:16:09;517.05;;;95.70;;
54831;SDS011;40730;53.068;6.572;2023-04-23T05:18:36;501.92;;;93.20;;
54831;SDS011;40730;53.068;6.572;2023-04-23T05:21:05;452.15;;;94.32;;
54831;SDS011;40730;53.068;6.572;2023-04-23T05:23:31;414.75;;;86.97;;
54831;SDS011;40730;53.068;6.572;2023-04-23T05:25:57;433.05;;;93.60;;
54831;SDS011;40730;53.068;6.572;2023-04-23T05:28:23;460.60;;;95.22;;
54831;SDS011;40730;53.068;6.572;2023-04-23T05:30:49;414.60;;;95.47;;
54831;SDS011;40730;53.068;6.572;2023-04-23T05:33:15;369.45;;;91.00;;
54831;SDS011;40730;53.068;6.572;2023-04-23T05:35:41;381.95;;;92.18;;
54831;SDS011;40730;53.068;6.572;2023-04-23T05:38:07;373.60;;;92.03;;
54831;SDS011;40730;53.068;6.572;2023-04-23T05:40:34;368.42;;;91.97;;
54831;SDS011;40730;53.068;6.572;2023-04-23T05:42:59;349.88;;;92.45;;
54831;SDS011;40730;53.068;6.572;2023-04-23T05:45:25;341.08;;;93.55;;
54831;SDS011;40730;53.068;6.572;2023-04-23T05:47:51;338.67;;;92.15;;
54831;SDS011;40730;53.068;6.572;2023-04-23T05:50:17;336.38;;;93.38;;
54831;SDS011;40730;53.068;6.572;2023-04-23T05:52:43;324.55;;;92.57;;
54831;SDS011;40730;53.068;6.572;2023-04-23T05:55:09;304.30;;;88.57;;
54831;SDS011;40730;53.068;6.572;2023-04-23T05:57:35;329.48;;;91.78;;
54831;SDS011;40730;53.068;6.572;2023-04-23T06:00:02;315.60;;;89.72;;
54831;SDS011;40730;53.068;6.572;2023-04-23T06:02:29;316.90;;;91.22;;
54831;SDS011;40730;53.068;6.572;2023-04-23T06:04:55;287.77;;;87.72;;
54831;SDS011;40730;53.068;6.572;2023-04-23T06:07:21;306.17;;;91.70;;
54831;SDS011;40730;53.068;6.572;2023-04-23T06:09:46;262.95;;;84.85;;
54831;SDS011;40730;53.068;6.572;2023-04-23T06:12:12;267.63;;;86.70;;
54831;SDS011;40730;53.068;6.572;2023-04-23T06:14:38;244.63;;;81.22;;
54831;SDS011;40730;53.068;6.572;2023-04-23T06:17:03;244.77;;;81.57;;
54831;SDS011;40730;53.068;6.572;2023-04-23T06:19:30;229.93;;;79.40;;
54831;SDS011;40730;53.068;6.572;2023-04-23T06:21:55;213.82;;;78.78;;
54831;SDS011;40730;53.068;6.572;2023-04-23T06:24:21;213.60;;;76.35;;
54831;SDS011;40730;53.068;6.572;2023-04-23T06:26:47;212.13;;;74.47;;
54831;SDS011;40730;53.068;6.572;2023-04-23T06:29:12;191.10;;;73.53;;
54831;SDS011;40730;53.068;6.572;2023-04-23T06:31:38;188.60;;;73.85;;
54831;SDS011;40730;53.068;6.572;2023-04-23T06:34:05;158.45;;;70.05;;
54831;SDS011;40730;53.068;6.572;2023-04-23T06:36:31;140.30;;;63.58;;
54831;SDS011;40730;53.068;6.572;2023-04-23T06:38:57;128.05;;;59.50;;
54831;SDS011;40730;53.068;6.572;2023-04-23T06:41:22;121.05;;;59.25;;
54831;SDS011;40730;53.068;6.572;2023-04-23T06:43:48;114.75;;;53.83;;
54831;SDS011;40730;53.068;6.572;2023-04-23T06:46:14;108.20;;;55.47;;
54831;SDS011;40730;53.068;6.572;2023-04-23T06:48:39;114.82;;;56.38;;
54831;SDS011;40730;53.068;6.572;2023-04-23T06:51:05;101.05;;;51.92;;
54831;SDS011;40730;53.068;6.572;2023-04-23T06:53:31;95.97;;;53.05;;
54831;SDS011;40730;53.068;6.572;2023-04-23T06:55:57;83.72;;;45.50;;
54831;SDS011;40730;53.068;6.572;2023-04-23T06:58:22;73.50;;;42.33;;
54831;SDS011;40730;53.068;6.572;2023-04-23T07:00:55;71.22;;;41.92;;
54831;SDS011;40730;53.068;6.572;2023-04-23T07:03:24;68.25;;;41.22;;
54831;SDS011;40730;53.068;6.572;2023-04-23T07:05:51;65.20;;;39.58;;
54831;SDS011;40730;53.068;6.572;2023-04-23T07:08:17;67.30;;;39.42;;
54831;SDS011;40730;53.068;6.572;2023-04-23T07:10:45;67.05;;;41.15;;
54831;SDS011;40730;53.068;6.572;2023-04-23T07:13:10;62.58;;;39.58;;
54831;SDS011;40730;53.068;6.572;2023-04-23T07:15:36;63.97;;;38.20;;
54831;SDS011;40730;53.068;6.572;2023-04-23T07:18:02;63.47;;;39.08;;
54831;SDS011;40730;53.068;6.572;2023-04-23T07:20:28;57.30;;;36.45;;
54831;SDS011;40730;53.068;6.572;2023-04-23T07:22:53;56.00;;;35.53;;
54831;SDS011;40730;53.068;6.572;2023-04-23T07:25:19;56.55;;;35.42;;
54831;SDS011;40730;53.068;6.572;2023-04-23T07:27:46;54.92;;;35.15;;
54831;SDS011;40730;53.068;6.572;2023-04-23T07:30:12;51.63;;;34.25;;
54831;SDS011;40730;53.068;6.572;2023-04-23T07:32:38;49.10;;;33.55;;
54831;SDS011;40730;53.068;6.572;2023-04-23T07:35:03;52.58;;;34.72;;
54831;SDS011;40730;53.068;6.572;2023-04-23T07:37:29;49.72;;;34.08;;
54831;SDS011;40730;53.068;6.572;2023-04-23T07:39:55;51.03;;;34.95;;
54831;SDS011;40730;53.068;6.572;2023-04-23T07:42:21;50.40;;;34.78;;
54831;SDS011;40730;53.068;6.572;2023-04-23T07:44:46;50.72;;;33.47;;
54831;SDS011;40730;53.068;6.572;2023-04-23T07:47:12;46.47;;;32.47;;
54831;SDS011;40730;53.068;6.572;2023-04-23T07:49:37;47.70;;;32.78;;
54831;SDS011;40730;53.068;6.572;2023-04-23T07:52:03;53.13;;;34.15;;
54831;SDS011;40730;53.068;6.572;2023-04-23T07:54:29;43.03;;;31.20;;
54831;SDS011;40730;53.068;6.572;2023-04-23T07:56:54;44.00;;;33.03;;
54831;SDS011;40730;53.068;6.572;2023-04-23T07:59:21;44.38;;;31.55;;
54831;SDS011;40730;53.068;6.572;2023-04-23T08:01:46;43.13;;;29.27;;
54831;SDS011;40730;53.068;6.572;2023-04-23T08:04:12;40.47;;;28.15;;
54831;SDS011;40730;53.068;6.572;2023-04-23T08:06:38;41.38;;;30.42;;
54831;SDS011;40730;53.068;6.572;2023-04-23T08:09:03;40.72;;;28.55;;
54831;SDS011;40730;53.068;6.572;2023-04-23T08:11:30;38.67;;;28.20;;
54831;SDS011;40730;53.068;6.572;2023-04-23T08:13:56;35.45;;;27.13;;
54831;SDS011;40730;53.068;6.572;2023-04-23T08:16:22;37.22;;;27.38;;
54831;SDS011;40730;53.068;6.572;2023-04-23T08:18:48;38.72;;;27.40;;
54831;SDS011;40730;53.068;6.572;2023-04-23T08:21:13;35.33;;;25.63;;
54831;SDS011;40730;53.068;6.572;2023-04-23T08:23:39;32.60;;;25.75;;
54831;SDS011;40730;53.068;6.572;2023-04-23T08:26:05;36.10;;;26.20;;
54831;SDS011;40730;53.068;6.572;2023-04-23T08:28:30;32.85;;;25.55;;
54831;SDS011;40730;53.068;6.572;2023-04-23T08:30:56;32.47;;;25.10;;
54831;SDS011;40730;53.068;6.572;2023-04-23T08:33:21;32.00;;;24.48;;
54831;SDS011;40730;53.068;6.572;2023-04-23T08:35:47;35.50;;;25.25;;
54831;SDS011;40730;53.068;6.572;2023-04-23T08:38:13;33.55;;;24.77;;
54831;SDS011;40730;53.068;6.572;2023-04-23T08:40:38;32.80;;;24.42;;
54831;SDS011;40730;53.068;6.572;2023-04-23T08:43:12;28.38;;;21.42;;
54831;SDS011;40730;53.068;6.572;2023-04-23T08:45:44;27.50;;;21.58;;
54831;SDS011;40730;53.068;6.572;2023-04-23T08:48:11;26.33;;;20.80;;
54831;SDS011;40730;53.068;6.572;2023-04-23T08:50:38;24.92;;;19.52;;
54831;SDS011;40730;53.068;6.572;2023-04-23T08:53:09;26.95;;;20.63;;
54831;SDS011;40730;53.068;6.572;2023-04-23T08:55:38;26.27;;;20.10;;
54831;SDS011;40730;53.068;6.572;2023-04-23T08:58:05;23.33;;;18.75;;
54831;SDS011;40730;53.068;6.572;2023-04-23T09:00:31;22.48;;;17.90;;
54831;SDS011;40730;53.068;6.572;2023-04-23T09:02:58;24.50;;;19.63;;
54831;SDS011;40730;53.068;6.572;2023-04-23T09:05:24;20.95;;;16.42;;
54831;SDS011;40730;53.068;6.572;2023-04-23T09:07:51;19.13;;;15.82;;
54831;SDS011;40730;53.068;6.572;2023-04-23T09:10:18;21.77;;;16.20;;
54831;SDS011;40730;53.068;6.572;2023-04-23T09:12:43;21.00;;;16.90;;
54831;SDS011;40730;53.068;6.572;2023-04-23T09:15:09;19.23;;;15.65;;
54831;SDS011;40730;53.068;6.572;2023-04-23T09:17:38;21.73;;;16.77;;
54831;SDS011;40730;53.068;6.572;2023-04-23T09:20:06;18.42;;;14.82;;
54831;SDS011;40730;53.068;6.572;2023-04-23T09:22:44;17.13;;;13.10;;
54831;SDS011;40730;53.068;6.572;2023-04-23T09:25:12;15.55;;;12.95;;
54831;SDS011;40730;53.068;6.572;2023-04-23T09:27:40;13.82;;;10.95;;
54831;SDS011;40730;53.068;6.572;2023-04-23T09:30:06;14.68;;;10.35;;
54831;SDS011;40730;53.068;6.572;2023-04-23T09:32:35;12.10;;;8.07;;
54831;SDS011;40730;53.068;6.572;2023-04-23T09:35:04;10.63;;;7.88;;
54831;SDS011;40730;53.068;6.572;2023-04-23T09:37:32;14.65;;;9.50;;
54831;SDS011;40730;53.068;6.572;2023-04-23T09:39:58;13.80;;;9.32;;
54831;SDS011;40730;53.068;6.572;2023-04-23T09:42:29;14.45;;;8.88;;
54831;SDS011;40730;53.068;6.572;2023-04-23T09:44:57;12.93;;;8.23;;
54831;SDS011;40730;53.068;6.572;2023-04-23T09:47:36;13.35;;;9.32;;
54831;SDS011;40730;53.068;6.572;2023-04-23T09:50:03;13.00;;;7.75;;
54831;SDS011;40730;53.068;6.572;2023-04-23T09:52:30;12.65;;;6.57;;
54831;SDS011;40730;53.068;6.572;2023-04-23T09:54:56;9.98;;;6.68;;
54831;SDS011;40730;53.068;6.572;2023-04-23T09:57:25;9.70;;;7.15;;
54831;SDS011;40730;53.068;6.572;2023-04-23T09:59:50;13.93;;;7.60;;
54831;SDS011;40730;53.068;6.572;2023-04-23T10:02:16;14.93;;;7.88;;
54831;SDS011;40730;53.068;6.572;2023-04-23T10:04:42;11.85;;;6.93;;
54831;SDS011;40730;53.068;6.572;2023-04-23T10:07:08;9.52;;;6.15;;
54831;SDS011;40730;53.068;6.572;2023-04-23T10:09:38;11.20;;;5.00;;
54831;SDS011;40730;53.068;6.572;2023-04-23T10:12:05;10.00;;;5.22;;
54831;SDS011;40730;53.068;6.572;2023-04-23T10:14:32;10.77;;;4.88;;
54831;SDS011;40730;53.068;6.572;2023-04-23T10:19:24;10.93;;;4.20;;
54831;SDS011;40730;53.068;6.572;2023-04-23T10:21:58;7.68;;;4.45;;
54831;SDS011;40730;53.068;6.572;2023-04-23T10:24:29;9.23;;;4.83;;
54831;SDS011;40730;53.068;6.572;2023-04-23T10:26:57;7.72;;;3.65;;
54831;SDS011;40730;53.068;6.572;2023-04-23T10:29:28;8.93;;;3.55;;
54831;SDS011;40730;53.068;6.572;2023-04-23T10:31:56;12.05;;;4.28;;
54831;SDS011;40730;53.068;6.572;2023-04-23T10:34:24;6.82;;;3.35;;
54831;SDS011;40730;53.068;6.572;2023-04-23T10:36:51;12.55;;;4.15;;
54831;SDS011;40730;53.068;6.572;2023-04-23T10:39:21;8.02;;;3.90;;
54831;SDS011;40730;53.068;6.572;2023-04-23T10:41:58;7.15;;;3.58;;
54831;SDS011;40730;53.068;6.572;2023-04-23T10:44:30;7.72;;;3.92;;
54831;SDS011;40730;53.068;6.572;2023-04-23T10:47:03;9.13;;;3.83;;
54831;SDS011;40730;53.068;6.572;2023-04-23T10:49:30;8.55;;;3.00;;
54831;SDS011;40730;53.068;6.572;2023-04-23T10:52:03;7.20;;;3.35;;
54831;SDS011;40730;53.068;6.572;2023-04-23T10:54:34;6.40;;;3.22;;
54831;SDS011;40730;53.068;6.572;2023-04-23T10:57:01;7.88;;;3.03;;
54831;SDS011;40730;53.068;6.572;2023-04-23T10:59:32;5.43;;;3.13;;
54831;SDS011;40730;53.068;6.572;2023-04-23T11:02:05;7.93;;;3.63;;
54831;SDS011;40730;53.068;6.572;2023-04-23T11:04:32;8.65;;;3.13;;
54831;SDS011;40730;53.068;6.572;2023-04-23T11:07:06;7.55;;;3.00;;
54831;SDS011;40730;53.068;6.572;2023-04-23T11:11:59;6.45;;;3.13;;
54831;SDS011;40730;53.068;6.572;2023-04-23T11:15:08;6.28;;;2.97;;
54831;SDS011;40730;53.068;6.572;2023-04-23T11:22:34;8.20;;;1.95;;
54831;SDS011;40730;53.068;6.572;2023-04-23T11:25:01;7.22;;;2.13;;
54831;SDS011;40730;53.068;6.572;2023-04-23T11:27:26;6.38;;;1.83;;
54831;SDS011;40730;53.068;6.572;2023-04-23T11:29:54;5.95;;;1.45;;
54831;SDS011;40730;53.068;6.572;2023-04-23T11:32:20;3.53;;;1.02;;
54831;SDS011;40730;53.068;6.572;2023-04-23T11:34:46;4.50;;;1.40;;
54831;SDS011;40730;53.068;6.572;2023-04-23T11:37:14;4.80;;;2.28;;
54831;SDS011;40730;53.068;6.572;2023-04-23T11:39:44;6.68;;;1.83;;
54831;SDS011;40730;53.068;6.572;2023-04-23T11:42:15;5.03;;;0.60;;
54831;SDS011;40730;53.068;6.572;2023-04-23T11:44:41;3.90;;;0.77;;
54831;SDS011;40730;53.068;6.572;2023-04-23T11:47:08;5.13;;;0.73;;
54831;SDS011;40730;53.068;6.572;2023-04-23T11:49:39;4.85;;;1.13;;
54831;SDS011;40730;53.068;6.572;2023-04-23T11:52:06;3.70;;;0.77;;
54831;SDS011;40730;53.068;6.572;2023-04-23T11:54:32;3.92;;;0.68;;
54831;SDS011;40730;53.068;6.572;2023-04-23T11:56:58;3.65;;;0.55;;
54831;SDS011;40730;53.068;6.572;2023-04-23T11:59:25;3.20;;;0.40;;
54831;SDS011;40730;53.068;6.572;2023-04-23T12:01:53;5.38;;;0.70;;
54831;SDS011;40730;53.068;6.572;2023-04-23T12:04:22;4.10;;;0.50;;
54831;SDS011;40730;53.068;6.572;2023-04-23T12:06:49;4.13;;;0.63;;
54831;SDS011;40730;53.068;6.572;2023-04-23T12:09:17;4.53;;;0.55;;
54831;SDS011;40730;53.068;6.572;2023-04-23T12:11:45;3.05;;;0.50;;
54831;SDS011;40730;53.068;6.572;2023-04-23T12:14:12;3.88;;;0.40;;
54831;SDS011;40730;53.068;6.572;2023-04-23T12:19:46;7.35;;;0.57;;
54831;SDS011;40730;53.068;6.572;2023-04-23T12:21:54;4.03;;;0.60;;
54831;SDS011;40730;53.068;6.572;2023-04-23T12:24:22;2.75;;;0.60;;
54831;SDS011;40730;53.068;6.572;2023-04-23T12:26:49;3.80;;;0.55;;
54831;SDS011;40730;53.068;6.572;2023-04-23T12:29:18;5.97;;;0.80;;
54831;SDS011;40730;53.068;6.572;2023-04-23T12:31:45;2.85;;;0.60;;
54831;SDS011;40730;53.068;6.572;2023-04-23T12:34:12;5.25;;;0.60;;
54831;SDS011;40730;53.068;6.572;2023-04-23T12:36:52;3.05;;;0.65;;
54831;SDS011;40730;53.068;6.572;2023-04-23T12:39:34;3.53;;;0.50;;
54831;SDS011;40730;53.068;6.572;2023-04-23T12:42:01;2.28;;;0.30;;
54831;SDS011;40730;53.068;6.572;2023-04-23T12:44:36;5.20;;;0.73;;
54831;SDS011;40730;53.068;6.572;2023-04-23T12:47:03;2.83;;;0.68;;
54831;SDS011;40730;53.068;6.572;2023-04-23T12:49:35;3.60;;;0.35;;
54831;SDS011;40730;53.068;6.572;2023-04-23T12:52:03;2.53;;;0.57;;
54831;SDS011;40730;53.068;6.572;2023-04-23T12:54:33;3.70;;;0.88;;
54831;SDS011;40730;53.068;6.572;2023-04-23T12:57:02;4.72;;;0.50;;
54831;SDS011;40730;53.068;6.572;2023-04-23T12:59:30;3.63;;;0.75;;
54831;SDS011;40730;53.068;6.572;2023-04-23T13:01:56;4.70;;;0.38;;
54831;SDS011;40730;53.068;6.572;2023-04-23T13:04:26;7.38;;;0.65;;
54831;SDS011;40730;53.068;6.572;2023-04-23T13:07:01;3.95;;;0.40;;
54831;SDS011;40730;53.068;6.572;2023-04-23T13:09:27;2.90;;;0.47;;
54831;SDS011;40730;53.068;6.572;2023-04-23T13:11:53;7.32;;;0.40;;
54831;SDS011;40730;53.068;6.572;2023-04-23T13:14:19;3.38;;;0.30;;
54831;SDS011;40730;53.068;6.572;2023-04-23T13:16:45;4.10;;;0.50;;
54831;SDS011;40730;53.068;6.572;2023-04-23T13:19:11;2.75;;;0.45;;
54831;SDS011;40730;53.068;6.572;2023-04-23T13:21:37;3.60;;;0.50;;
54831;SDS011;40730;53.068;6.572;2023-04-23T13:24:03;2.72;;;0.40;;
54831;SDS011;40730;53.068;6.572;2023-04-23T13:26:29;5.43;;;0.65;;
54831;SDS011;40730;53.068;6.572;2023-04-23T13:28:58;2.65;;;0.40;;
54831;SDS011;40730;53.068;6.572;2023-04-23T13:31:24;8.05;;;0.57;;
54831;SDS011;40730;53.068;6.572;2023-04-23T13:33:50;3.83;;;0.50;;
54831;SDS011;40730;53.068;6.572;2023-04-23T13:36:16;3.55;;;0.30;;
54831;SDS011;40730;53.068;6.572;2023-04-23T13:38:41;4.25;;;0.40;;
54831;SDS011;40730;53.068;6.572;2023-04-23T13:41:07;3.55;;;0.30;;
54831;SDS011;40730;53.068;6.572;2023-04-23T13:43:32;7.47;;;0.50;;
54831;SDS011;40730;53.068;6.572;2023-04-23T13:45:59;6.30;;;0.40;;
54831;SDS011;40730;53.068;6.572;2023-04-23T13:48:25;4.57;;;0.40;;
54831;SDS011;40730;53.068;6.572;2023-04-23T13:50:55;4.82;;;0.80;;
54831;SDS011;40730;53.068;6.572;2023-04-23T13:53:21;6.60;;;0.40;;
54831;SDS011;40730;53.068;6.572;2023-04-23T13:55:47;4.63;;;0.57;;
54831;SDS011;40730;53.068;6.572;2023-04-23T13:58:12;2.78;;;0.60;;
54831;SDS011;40730;53.068;6.572;2023-04-23T14:00:40;4.90;;;0.30;;
54831;SDS011;40730;53.068;6.572;2023-04-23T14:03:07;6.85;;;0.50;;
54831;SDS011;40730;53.068;6.572;2023-04-23T14:05:32;4.10;;;0.75;;
54831;SDS011;40730;53.068;6.572;2023-04-23T14:07:58;7.45;;;0.50;;
54831;SDS011;40730;53.068;6.572;2023-04-23T14:10:24;4.40;;;0.50;;
54831;SDS011;40730;53.068;6.572;2023-04-23T14:12:50;4.18;;;0.70;;
54831;SDS011;40730;53.068;6.572;2023-04-23T14:15:16;3.80;;;0.50;;
54831;SDS011;40730;53.068;6.572;2023-04-23T14:17:42;6.90;;;0.55;;
54831;SDS011;40730;53.068;6.572;2023-04-23T14:20:09;6.30;;;0.20;;
54831;SDS011;40730;53.068;6.572;2023-04-23T14:22:35;2.88;;;0.68;;
54831;SDS011;40730;53.068;6.572;2023-04-23T14:25:02;3.10;;;0.30;;
54831;SDS011;40730;53.068;6.572;2023-04-23T14:27:33;4.03;;;0.30;;
54831;SDS011;40730;53.068;6.572;2023-04-23T14:30:03;2.65;;;0.30;;
54831;SDS011;40730;53.068;6.572;2023-04-23T14:32:29;2.67;;;0.30;;
54831;SDS011;40730;53.068;6.572;2023-04-23T14:34:55;4.93;;;0.52;;